createdAt,value
2024-01-29T00:02:05.744Z,1259.8389261744967
2024-01-29T00:05:25.877Z,1210.006711409396
2024-01-29T00:08:46.469Z,1231.3087248322147
2024-01-29T00:12:06.537Z,1216.1677852348994
2024-01-29T00:15:28.270Z,1228.3691275167785
2024-01-29T00:18:48.228Z,1186.9328859060402
2024-01-29T00:22:08.505Z,1208.2147651006712
2024-01-29T00:25:29.010Z,1233.3422818791946
2024-01-29T00:28:48.808Z,1209.0
2024-01-29T00:32:09.562Z,1162.8724832214766
2024-01-29T00:35:29.755Z,1111.3489932885907
2024-01-29T00:38:49.806Z,1118.5973154362416
2024-01-29T00:42:21.953Z,1177.248322147651
2024-01-29T00:45:42.594Z,1128.3825503355704
2024-01-29T00:51:26.264Z,1145.5369127516778
2024-01-29T00:54:46.734Z,1139.1946308724832
2024-01-29T00:58:06.866Z,1176.744966442953
2024-01-29T01:01:28.670Z,1228.8523489932886
2024-01-29T01:04:49.213Z,1115.6375838926174
2024-01-29T01:08:08.489Z,1228.9731543624162
2024-01-29T01:11:28.775Z,1132.1879194630872
2024-01-29T01:14:48.730Z,1087.1677852348994
2024-01-29T01:19:30.477Z,1149.4429530201342
2024-01-29T01:22:52.073Z,1137.7852348993288
2024-01-29T01:26:12.717Z,1165.6912751677853
2024-01-29T01:29:32.707Z,1128.0805369127518
2024-01-29T01:32:52.731Z,1088.1140939597315
2024-01-29T01:36:13.406Z,1119.3825503355704
2024-01-29T01:39:33.529Z,1320.5637583892617
2024-01-29T01:42:54.135Z,1281.4832214765102
2024-01-29T01:46:15.244Z,1171.5302013422818
2024-01-29T01:49:36.418Z,1339.3288590604027
2024-01-29T01:52:56.716Z,1413.724832214765
2024-01-29T01:56:17.992Z,1219.6107382550335
2024-01-29T01:59:38.272Z,1186.1677852348994
2024-01-29T02:02:58.458Z,1165.6510067114093
2024-01-29T02:06:18.521Z,1171.3489932885907
2024-01-29T02:09:38.688Z,1115.979865771812
2024-01-29T02:12:58.232Z,1140.1409395973155
2024-01-29T02:16:18.685Z,1343.1342281879195
2024-01-29T02:21:49.314Z,1360.0469798657718
2024-01-29T02:25:09.348Z,1291.006711409396
2024-01-29T02:28:31.101Z,1264.8120805369128
2024-01-29T02:31:51.064Z,1266.8255033557048
2024-01-29T02:35:11.934Z,1304.1342281879195
2024-01-29T02:39:36.741Z,1344.221476510067
2024-01-29T02:42:57.191Z,1286.275167785235
2024-01-29T02:46:17.923Z,1251.7852348993288
2024-01-29T02:54:38.878Z,1235.0939597315437
2024-01-29T02:57:59.833Z,1119.4228187919464
2024-01-29T03:01:20.860Z,1213.711409395973
2024-01-29T03:04:40.737Z,1136.3758389261745
2024-01-29T03:08:00.642Z,1142.3557046979865
2024-01-29T03:11:21.726Z,1193.979865771812
2024-01-29T03:14:42.184Z,1141.3087248322147
2024-01-29T03:18:02.972Z,1053.2013422818793
2024-01-29T03:21:24.522Z,1048.1275167785234
2024-01-29T03:24:45.677Z,915.0604026845638
2024-01-29T03:28:05.389Z,991.5503355704698
2024-01-29T03:31:25.572Z,1002.9463087248322
2024-01-29T03:34:45.942Z,1033.5302013422818
2024-01-29T03:38:06.743Z,1040.013422818792
2024-01-29T03:41:27.394Z,982.228187919463
2024-01-29T03:44:48.422Z,1041.6241610738255
2024-01-29T03:49:27.161Z,1012.2885906040268
2024-01-29T03:52:48.170Z,1016.9194630872483
2024-01-29T03:56:08.998Z,972.9060402684564
2024-01-29T04:00:17.807Z,1018.248322147651
2024-01-29T04:03:38.187Z,1019.7583892617449
2024-01-29T04:06:59.916Z,1028.1946308724832
2024-01-29T04:10:20.544Z,1022.9597315436241
2024-01-29T04:13:41.431Z,993.9261744966443
2024-01-29T04:17:02.116Z,1008.0
2024-01-29T04:20:22.793Z,974.9798657718121
2024-01-29T04:23:42.238Z,983.9798657718121
2024-01-29T04:27:02.819Z,1015.8322147651006
2024-01-29T04:30:23.957Z,1060.6107382550335
2024-01-29T04:33:44.489Z,1090.268456375839
2024-01-29T04:37:05.531Z,1111.8926174496644
2024-01-29T04:40:27.048Z,1089.221476510067
2024-01-29T04:43:48.468Z,1090.711409395973
2024-01-29T04:47:08.797Z,1003.4093959731543
2024-01-29T04:50:30.109Z,1015.489932885906
2024-01-29T04:53:50.692Z,1035.4026845637584
2024-01-29T04:57:11.217Z,1083.96644295302
2024-01-29T05:00:31.749Z,1136.496644295302
2024-01-29T05:03:51.769Z,1091.0939597315437
2024-01-29T05:07:12.817Z,1097.0738255033557
2024-01-29T05:10:33.464Z,1189.6107382550335
2024-01-29T05:13:53.935Z,1139.1744966442952
2024-01-29T05:19:40.678Z,981.4026845637584
2024-01-29T05:23:01.005Z,1004.5570469798657
2024-01-29T05:26:21.682Z,943.489932885906
2024-01-29T05:29:41.951Z,996.744966442953
2024-01-29T05:33:31.609Z,1037.3355704697988
2024-01-29T05:36:51.494Z,979.006711409396
2024-01-29T05:40:12.333Z,988.489932885906
2024-01-29T05:43:33.592Z,1035.221476510067
2024-01-29T05:46:53.911Z,971.3154362416108
2024-01-29T05:50:15.382Z,979.9530201342282
2024-01-29T05:54:03.269Z,958.0268456375838
2024-01-29T05:57:24.540Z,993.48322147651
2024-01-29T06:00:45.229Z,1044.96644295302
2024-01-29T06:04:05.828Z,1003.6711409395973
2024-01-29T06:07:27.552Z,1016.9395973154362
2024-01-29T06:10:49.410Z,968.0134228187919
2024-01-29T06:14:10.211Z,1022.4161073825503
2024-01-29T06:19:28.746Z,1051.6912751677853
2024-01-29T06:22:49.552Z,996.261744966443
2024-01-29T06:26:10.216Z,991.0671140939597
2024-01-29T06:30:59.929Z,1010.4362416107383
2024-01-29T06:34:20.658Z,996.4630872483222
2024-01-29T06:39:40.865Z,1011.8859060402684
2024-01-29T06:45:27.446Z,1048.3892617449665
2024-01-29T06:48:48.635Z,1051.248322147651
2024-01-29T06:52:12.527Z,1080.7852348993288
2024-01-29T06:55:36.926Z,1061.496644295302
2024-01-29T06:58:57.692Z,1013.4362416107383
2024-01-29T07:02:18.885Z,991.8926174496644
2024-01-29T07:05:39.339Z,1060.1275167785234
2024-01-29T07:09:00.464Z,1138.2080536912752
2024-01-29T07:12:21.937Z,1200.523489932886
2024-01-29T07:15:49.175Z,1158.8657718120805
2024-01-29T07:20:46.357Z,1075.7718120805368
2024-01-29T07:24:06.936Z,1119.8255033557048
2024-01-29T07:27:27.384Z,1140.221476510067
2024-01-29T07:30:47.892Z,1143.2013422818793
2024-01-29T07:34:08.635Z,1100.3557046979865
2024-01-29T07:37:29.496Z,1220.2147651006712
2024-01-29T07:40:49.237Z,1320.7852348993288
2024-01-29T07:44:51.957Z,1167.1610738255033
2024-01-29T07:50:22.472Z,1090.7919463087248
2024-01-29T07:53:42.752Z,1074.241610738255
2024-01-29T07:57:27.481Z,1159.248322147651
2024-01-29T08:00:47.884Z,1142.1543624161075
2024-01-29T08:04:08.243Z,1190.8389261744967
2024-01-29T08:07:28.983Z,1092.9463087248323
2024-01-29T08:10:49.868Z,1107.3624161073826
2024-01-29T08:14:09.819Z,1138.4093959731545
2024-01-29T08:19:18.030Z,1099.9127516778524
2024-01-29T08:22:40.619Z,1120.5302013422818
2024-01-29T08:26:00.888Z,1141.751677852349
2024-01-29T08:29:21.749Z,1162.9731543624162
2024-01-29T08:32:41.653Z,1129.0268456375838
2024-01-29T08:38:20.414Z,1172.013422818792
2024-01-29T08:41:40.725Z,1220.013422818792
2024-01-29T08:45:01.092Z,1156.5906040268455
2024-01-29T08:48:22.068Z,1224.1006711409395
2024-01-29T08:51:42.277Z,1238.496644295302
2024-01-29T08:55:02.498Z,1177.8322147651006
2024-01-29T08:58:25.412Z,1227.6241610738255
2024-01-29T09:04:14.393Z,1282.510067114094
2024-01-29T09:07:34.788Z,1206.8657718120805
2024-01-29T09:12:52.789Z,1337.234899328859
2024-01-29T09:17:43.595Z,1359.6845637583892
2024-01-29T09:21:03.533Z,1399.9530201342282
2024-01-29T09:24:23.705Z,1366.5906040268455
2024-01-29T09:27:44.696Z,1327.1476510067114
2024-01-29T09:31:05.093Z,1262.4362416107383
2024-01-29T09:34:26.581Z,1204.248322147651
2024-01-29T09:47:05.652Z,1313.6778523489934
2024-01-29T09:50:26.259Z,1346.8993288590605
2024-01-29T09:53:46.469Z,1315.3892617449665
2024-01-29T09:57:06.982Z,1249.5503355704698
2024-01-29T10:00:29.908Z,1396.7919463087248
2024-01-29T10:03:51.376Z,1319.275167785235
2024-01-29T10:07:11.677Z,1327.7919463087248
2024-01-29T10:10:32.732Z,1306.993288590604
2024-01-29T10:13:53.006Z,1276.711409395973
2024-01-29T10:17:13.846Z,1252.3087248322147
2024-01-29T10:23:08.692Z,1248.4429530201342
2024-01-29T10:26:29.864Z,1293.6845637583892
2024-01-29T10:29:50.079Z,1302.503355704698
2024-01-29T10:33:10.855Z,1321.4496644295302
2024-01-29T10:38:00.109Z,1212.8859060402685
2024-01-29T10:41:20.903Z,1328.3758389261745
2024-01-29T10:44:41.070Z,1317.765100671141
2024-01-29T10:48:01.266Z,1360.5503355704698
2024-01-29T10:51:21.274Z,1329.0604026845638
2024-01-29T10:54:41.883Z,1440.1208053691275
2024-01-29T10:58:03.532Z,1372.6308724832215
2024-01-29T11:02:03.807Z,1489.9731543624162
2024-01-29T11:05:25.767Z,1468.8120805369128
2024-01-29T11:08:46.511Z,1460.7181208053692
2024-01-29T11:12:06.802Z,1374.8255033557048
2024-01-29T11:15:27.600Z,1345.2080536912752
2024-01-29T11:19:03.550Z,1379.456375838926
2024-01-29T11:24:39.020Z,1351.993288590604
2024-01-29T11:27:59.083Z,1431.9463087248323
2024-01-29T11:35:54.861Z,1532.8993288590605
2024-01-29T11:39:14.644Z,1569.2013422818793
2024-01-29T11:42:35.143Z,1623.0805369127518
2024-01-29T11:45:54.732Z,1686.9261744966443
2024-01-29T11:49:14.920Z,1722.241610738255
2024-01-29T11:52:35.380Z,1745.2147651006712
2024-01-29T11:55:55.665Z,1683.3825503355704
2024-01-29T11:59:46.698Z,1796.3959731543623
2024-01-29T12:03:07.562Z,1809.523489932886
2024-01-29T12:06:28.691Z,1821.3020134228188
2024-01-29T12:09:48.148Z,1781.255033557047
2024-01-29T12:13:08.693Z,1779.2617449664428
2024-01-29T12:17:06.415Z,1785.221476510067
2024-01-29T12:20:26.394Z,1843.510067114094
2024-01-29T12:23:52.358Z,1892.2147651006712
2024-01-29T12:27:13.127Z,1908.5838926174497
2024-01-29T12:30:33.080Z,1820.979865771812
2024-01-29T12:33:53.599Z,1895.3758389261745
2024-01-29T12:37:14.159Z,2080.1476510067114
2024-01-29T12:40:34.141Z,1925.8993288590605
2024-01-29T12:43:54.020Z,1877.7986577181207
2024-01-29T12:47:14.735Z,1923.8859060402685
2024-01-29T12:50:34.618Z,1906.006711409396
2024-01-29T12:53:55.232Z,1948.5302013422818
2024-01-29T13:00:36.413Z,1883.8993288590605
2024-01-29T13:03:56.438Z,1998.0402684563758
2024-01-29T13:07:18.441Z,1937.456375838926
2024-01-29T13:10:38.709Z,2010.3221476510066
2024-01-29T13:13:59.831Z,1934.1140939597315
2024-01-29T13:17:20.242Z,1984.1476510067114
2024-01-29T13:21:24.415Z,1955.3154362416108
2024-01-29T13:24:45.008Z,2056.489932885906
2024-01-29T13:30:03.463Z,2008.6510067114093
2024-01-29T13:33:24.568Z,2089.1073825503354
2024-01-29T13:36:45.242Z,1883.7986577181207
2024-01-29T13:40:05.637Z,1946.5973154362416
2024-01-29T13:43:26.525Z,1978.006711409396
2024-01-29T13:46:47.131Z,1981.4697986577182
2024-01-29T13:50:07.500Z,2003.456375838926
2024-01-29T13:53:28.601Z,2144.577181208054
2024-01-29T13:56:48.893Z,2140.751677852349
2024-01-29T14:00:09.282Z,2057.3154362416108
2024-01-29T14:03:30.358Z,1993.4295302013422
2024-01-29T14:06:50.668Z,2068.711409395973
2024-01-29T14:10:10.924Z,2251.288590604027
2024-01-29T14:13:31.564Z,2182.5906040268455
2024-01-29T14:16:51.892Z,2175.261744966443
2024-01-29T14:20:12.766Z,2072.3154362416108
2024-01-29T14:23:33.741Z,2269.4093959731545
2024-01-29T14:26:54.017Z,2264.758389261745
2024-01-29T14:30:14.765Z,2370.48322147651
2024-01-29T14:42:13.414Z,2435.51677852349
2024-01-29T14:45:34.340Z,2380.268456375839
2024-01-29T14:48:54.458Z,2430.9664429530203
2024-01-29T14:52:14.965Z,2497.711409395973
2024-01-29T14:55:36.476Z,2450.778523489933
2024-01-29T14:58:56.964Z,2538.1006711409395
2024-01-29T15:02:17.133Z,2615.2751677852348
2024-01-29T15:05:38.532Z,2637.1409395973155
2024-01-29T15:08:58.584Z,2641.6107382550335
2024-01-29T15:15:06.685Z,2679.9664429530203
2024-01-29T15:18:26.942Z,2563.06711409396
2024-01-29T15:21:47.150Z,2513.9194630872485
2024-01-29T15:25:07.085Z,2591.2550335570468
2024-01-29T15:28:27.912Z,2570.4765100671143
2024-01-29T15:31:48.920Z,2704.93288590604
2024-01-29T15:35:09.371Z,2682.7852348993288
2024-01-29T15:38:30.290Z,2752.55033557047
2024-01-29T15:46:42.022Z,2566.6308724832215
2024-01-29T15:50:02.627Z,2814.8053691275168
2024-01-29T15:53:23.571Z,2676.5838926174497
2024-01-29T15:56:43.934Z,2786.818791946309
2024-01-29T16:02:29.129Z,3522.503355704698
2024-01-29T16:05:49.373Z,3254.959731543624
2024-01-29T16:09:59.320Z,3187.731543624161
2024-01-29T16:13:20.168Z,3105.8053691275168
2024-01-29T16:16:41.267Z,3136.8724832214766
2024-01-29T16:20:01.555Z,3038.9395973154365
2024-01-29T16:27:59.061Z,3161.6979865771814
2024-01-29T16:32:21.617Z,3729.48322147651
2024-01-29T16:36:46.626Z,3872.3758389261743
2024-01-29T16:40:24.638Z,3672.9664429530203
2024-01-29T16:43:45.697Z,3858.9060402684563
2024-01-29T16:47:05.978Z,3604.731543624161
2024-01-29T16:50:26.651Z,3717.241610738255
2024-01-29T16:53:47.195Z,3696.201342281879
2024-01-29T16:57:07.780Z,3393.5637583892617
2024-01-29T17:00:28.762Z,3266.2550335570468
2024-01-29T17:03:48.912Z,3279.020134228188
2024-01-29T17:09:30.645Z,3333.040268456376
2024-01-29T17:15:10.477Z,3241.087248322148
2024-01-29T17:20:48.968Z,3266.979865771812
2024-01-29T17:24:22.964Z,3346.912751677852
2024-01-29T17:27:44.147Z,3406.288590604027
2024-01-29T17:31:04.152Z,3428.5973154362414
2024-01-29T17:34:25.314Z,3310.6510067114095
2024-01-29T17:37:46.208Z,3248.3959731543623
2024-01-29T17:41:06.199Z,3361.55033557047
2024-01-29T17:44:26.806Z,3361.510067114094
2024-01-29T17:47:46.625Z,3362.2147651006712
2024-01-29T17:51:06.657Z,3347.3154362416108
2024-01-29T17:54:27.749Z,3297.5234899328857
2024-01-29T17:57:48.088Z,3317.4362416107383
2024-01-29T18:01:09.180Z,3381.503355704698
2024-01-29T18:04:30.167Z,3319.6711409395975
2024-01-29T18:07:51.113Z,3200.1140939597317
2024-01-29T18:11:11.782Z,3228.442953020134
2024-01-29T18:14:33.168Z,3234.8053691275168
2024-01-29T18:17:53.667Z,3347.818791946309
2024-01-29T18:22:59.085Z,3291.9261744966443
2024-01-29T18:26:20.181Z,3347.8993288590605
2024-01-29T18:29:40.628Z,3375.281879194631
2024-01-29T18:33:01.399Z,3493.1073825503354
2024-01-29T18:36:21.896Z,3572.6375838926174
2024-01-29T18:40:06.108Z,3519.442953020134
2024-01-29T18:43:27.112Z,3458.496644295302
2024-01-29T18:46:48.000Z,3504.201342281879
2024-01-29T18:50:08.988Z,3631.7919463087246
2024-01-29T18:54:22.043Z,3557.3154362416108
2024-01-29T18:59:18.390Z,3861.4026845637586
2024-01-29T19:05:43.007Z,4011.3422818791946
2024-01-29T19:09:03.351Z,3931.06711409396
2024-01-29T19:12:24.316Z,4361.436241610738
2024-01-29T19:15:44.997Z,4411.5503355704695
2024-01-29T19:19:05.417Z,3991.248322147651
2024-01-29T19:22:26.998Z,3892.1677852348994
2024-01-29T19:25:46.920Z,4088.1543624161072
2024-01-29T19:29:06.899Z,4148.536912751678
2024-01-29T19:32:27.748Z,4045.44966442953
2024-01-29T19:35:47.528Z,3950.6979865771814
2024-01-29T19:39:07.598Z,4021.6510067114095
2024-01-29T19:45:48.360Z,3967.4093959731545
2024-01-29T19:49:08.294Z,4181.174496644296
2024-01-29T19:52:30.203Z,4152.342281879195
2024-01-29T19:56:10.416Z,4279.852348993289
2024-01-29T19:59:30.840Z,4153.6308724832215
2024-01-29T20:02:50.849Z,4248.744966442953
2024-01-29T20:06:10.894Z,4250.577181208054
2024-01-29T20:09:32.007Z,4178.456375838926
2024-01-29T20:12:52.049Z,4254.583892617449
2024-01-29T20:16:12.773Z,4135.953020134229
2024-01-29T20:19:33.620Z,4189.771812080537
2024-01-29T20:22:54.525Z,4298.335570469799
2024-01-29T20:26:15.973Z,4347.463087248322
2024-01-29T20:29:36.573Z,4273.6107382550335
2024-01-29T20:34:36.506Z,4413.96644295302
2024-01-29T20:37:57.195Z,4492.127516778523
2024-01-29T20:42:21.402Z,4572.664429530201
2024-01-29T20:46:57.804Z,4712.255033557047
2024-01-29T20:50:18.516Z,4983.140939597315
2024-01-29T20:53:39.670Z,4900.6308724832215
2024-01-29T21:00:06.810Z,4856.496644295302
2024-01-29T21:03:27.144Z,4704.040268456376
2024-01-29T21:06:46.890Z,4638.986577181208
2024-01-29T21:13:23.232Z,4742.577181208054
2024-01-29T21:16:44.047Z,4789.852348993289
2024-01-29T21:20:05.159Z,4653.422818791946
2024-01-29T21:23:25.632Z,4807.852348993289
2024-01-29T21:26:46.512Z,4744.6912751677855
2024-01-29T21:30:07.068Z,4843.7114093959735
2024-01-29T21:33:27.953Z,4738.127516778523
2024-01-29T21:36:49.053Z,4726.3087248322145
2024-01-29T21:40:09.550Z,4824.96644295302
2024-01-29T21:44:09.774Z,4965.825503355704
2024-01-29T21:47:30.715Z,4989.644295302013
2024-01-29T21:50:51.853Z,4902.583892617449
2024-01-29T21:54:12.946Z,4969.4295302013425
2024-01-29T21:57:33.611Z,4860.0
2024-01-29T22:00:55.408Z,4881.96644295302
2024-01-29T22:04:17.070Z,4989.624161073825
2024-01-29T22:07:37.411Z,5064.140939597315
2024-01-29T22:10:57.818Z,5006.879194630873
2024-01-29T22:14:18.492Z,5117.738255033557
2024-01-29T22:18:26.668Z,5133.201342281879
2024-01-29T22:21:46.931Z,5068.208053691275
2024-01-29T22:25:07.236Z,4863.442953020134
2024-01-29T22:28:28.026Z,4982.61744966443
2024-01-29T22:31:48.567Z,5019.523489932886
2024-01-29T22:35:08.997Z,4910.818791946309
2024-01-29T22:38:29.739Z,5215.107382550335
2024-01-29T22:41:49.983Z,5246.939597315436
2024-01-29T22:45:10.671Z,5270.395973154363
2024-01-29T22:48:31.126Z,4975.791946308725
2024-01-29T22:51:52.093Z,5106.825503355704
2024-01-29T22:55:12.858Z,4883.919463087248
2024-01-29T22:58:33.580Z,5149.791946308725
2024-01-29T23:01:54.111Z,5164.3087248322145
2024-01-29T23:05:14.700Z,5265.120805369127
2024-01-29T23:09:10.606Z,5188.932885906041
2024-01-29T23:12:30.864Z,4922.798657718121
2024-01-29T23:15:51.458Z,4931.697986577181
2024-01-29T23:19:22.901Z,4832.577181208054
2024-01-29T23:22:43.237Z,4874.214765100671
2024-01-29T23:27:08.483Z,4819.852348993289
2024-01-29T23:31:51.122Z,4911.986577181208
2024-01-29T23:35:11.207Z,4926.181208053691
2024-01-29T23:44:14.044Z,4796.718120805369
2024-01-29T23:47:34.613Z,4708.6510067114095
2024-01-29T23:50:54.800Z,4755.38255033557
2024-01-29T23:54:16.328Z,4697.114093959732
2024-01-29T23:57:36.552Z,4696.3087248322145
